sensor_id;sensor_type;location;lat;lon;timestamp;pressure;altitude;pressure_sealevel;temperature;humidity
17260;BME280;8746;49.230;9.220;2023-02-23T00:01:58;99618.69;;;7.15;100.00
17260;BME280;8746;49.230;9.220;2023-02-23T00:04:31;99619.44;;;7.18;100.00
17260;BME280;8746;49.230;9.220;2023-02-23T00:06:56;99623.78;;;7.19;100.00
17260;BME280;8746;49.230;9.220;2023-02-23T00:09:22;99618.56;;;7.19;100.00
17260;BME280;8746;49.230;9.220;2023-02-23T00:11:49;99617.63;;;7.20;100.00
17260;BME280;8746;49.230;9.220;2023-02-23T00:14:15;99618.44;;;7.22;100.00
17260;BME280;8746;49.230;9.220;2023-02-23T00:16:40;99622.72;;;6.97;100.00
17260;BME280;8746;49.230;9.220;2023-02-23T00:19:09;99630.16;;;7.11;100.00
17260;BME280;8746;49.230;9.220;2023-02-23T00:21:36;99621.38;;;6.83;100.00
17260;BME280;8746;49.230;9.220;2023-02-23T00:24:04;99622.59;;;6.71;100.00
17260;BME280;8746;49.230;9.220;2023-02-23T00:26:32;99623.59;;;6.67;100.00
17260;BME280;8746;49.230;9.220;2023-02-23T00:29:00;99618.41;;;6.66;100.00
17260;BME280;8746;49.230;9.220;2023-02-23T00:31:26;99622.78;;;6.65;100.00
17260;BME280;8746;49.230;9.220;2023-02-23T00:33:56;99613.19;;;6.66;100.00
17260;BME280;8746;49.230;9.220;2023-02-23T00:36:25;99605.25;;;6.67;100.00
17260;BME280;8746;49.230;9.220;2023-02-23T00:38:54;99610.50;;;6.67;100.00
17260;BME280;8746;49.230;9.220;2023-02-23T00:41:20;99613.94;;;6.69;100.00
17260;BME280;8746;49.230;9.220;2023-02-23T00:43:48;99613.06;;;6.69;100.00
17260;BME280;8746;49.230;9.220;2023-02-23T00:46:18;99607.75;;;6.72;100.00
17260;BME280;8746;49.230;9.220;2023-02-23T00:48:46;99610.31;;;6.73;100.00
17260;BME280;8746;49.230;9.220;2023-02-23T00:51:12;99607.81;;;6.69;100.00
17260;BME280;8746;49.230;9.220;2023-02-23T00:53:38;99605.50;;;6.58;100.00
17260;BME280;8746;49.230;9.220;2023-02-23T00:56:04;99604.66;;;6.57;100.00
17260;BME280;8746;49.230;9.220;2023-02-23T00:58:30;99609.00;;;6.58;100.00
17260;BME280;8746;49.230;9.220;2023-02-23T01:00:56;99605.50;;;6.60;100.00
17260;BME280;8746;49.230;9.220;2023-02-23T01:03:27;99607.25;;;6.59;100.00
17260;BME280;8746;49.230;9.220;2023-02-23T01:05:53;99606.44;;;6.57;100.00
17260;BME280;8746;49.230;9.220;2023-02-23T01:08:19;99605.50;;;6.60;100.00
17260;BME280;8746;49.230;9.220;2023-02-23T01:10:45;99609.72;;;6.64;100.00
17260;BME280;8746;49.230;9.220;2023-02-23T01:13:21;99609.72;;;6.64;100.00
17260;BME280;8746;49.230;9.220;2023-02-23T01:15:47;99604.44;;;6.65;100.00
17260;BME280;8746;49.230;9.220;2023-02-23T01:18:15;99610.72;;;6.60;100.00
17260;BME280;8746;49.230;9.220;2023-02-23T01:20:40;99610.09;;;6.51;100.00
17260;BME280;8746;49.230;9.220;2023-02-23T01:23:08;99610.09;;;6.51;100.00
17260;BME280;8746;49.230;9.220;2023-02-23T01:25:34;99606.47;;;6.55;100.00
17260;BME280;8746;49.230;9.220;2023-02-23T01:28:00;99605.56;;;6.56;100.00
17260;BME280;8746;49.230;9.220;2023-02-23T01:30:26;99614.19;;;6.60;100.00
17260;BME280;8746;49.230;9.220;2023-02-23T01:32:51;99605.03;;;6.45;100.00
17260;BME280;8746;49.230;9.220;2023-02-23T01:35:17;99606.94;;;6.40;100.00
17260;BME280;8746;49.230;9.220;2023-02-23T01:37:42;99605.09;;;6.42;100.00
17260;BME280;8746;49.230;9.220;2023-02-23T01:40:12;99605.88;;;6.46;100.00
17260;BME280;8746;49.230;9.220;2023-02-23T01:42:41;99600.75;;;6.43;100.00
17260;BME280;8746;49.230;9.220;2023-02-23T01:45:21;99598.13;;;6.41;100.00
17260;BME280;8746;49.230;9.220;2023-02-23T01:47:48;99598.91;;;6.45;100.00
17260;BME280;8746;49.230;9.220;2023-02-23T01:50:15;99605.66;;;6.53;100.00
17260;BME280;8746;49.230;9.220;2023-02-23T01:52:46;99606.69;;;6.48;100.00
17260;BME280;8746;49.230;9.220;2023-02-23T01:55:14;99601.50;;;6.46;100.00
17260;BME280;8746;49.230;9.220;2023-02-23T01:57:40;99596.34;;;6.43;100.00
17260;BME280;8746;49.230;9.220;2023-02-23T02:00:09;99601.50;;;6.46;100.00
17260;BME280;8746;49.230;9.220;2023-02-23T02:02:37;99601.34;;;6.52;100.00
17260;BME280;8746;49.230;9.220;2023-02-23T02:05:03;99603.94;;;6.52;100.00
17260;BME280;8746;49.230;9.220;2023-02-23T02:07:33;99603.97;;;6.51;100.00
17260;BME280;8746;49.230;9.220;2023-02-23T02:09:59;99605.56;;;6.56;100.00
17260;BME280;8746;49.230;9.220;2023-02-23T02:12:44;99599.44;;;6.57;100.00
17260;BME280;8746;49.230;9.220;2023-02-23T02:15:12;99598.59;;;6.55;100.00
17260;BME280;8746;49.230;9.220;2023-02-23T02:20:35;99599.69;;;6.48;100.00
17260;BME280;8746;49.230;9.220;2023-02-23T02:34:20;99593.47;;;6.52;100.00
17260;BME280;8746;49.230;9.220;2023-02-23T02:39:54;99588.94;;;6.57;100.00
17260;BME280;8746;49.230;9.220;2023-02-23T02:50:50;99590.75;;;6.55;100.00
17260;BME280;8746;49.230;9.220;2023-02-23T02:53:25;99588.25;;;6.51;100.00
17260;BME280;8746;49.230;9.220;2023-02-23T02:55:53;99581.25;;;6.51;100.00
17260;BME280;8746;49.230;9.220;2023-02-23T02:58:21;99578.50;;;6.56;100.00
17260;BME280;8746;49.230;9.220;2023-02-23T03:00:50;99576.84;;;6.53;100.00
17260;BME280;8746;49.230;9.220;2023-02-23T03:03:43;99581.97;;;6.56;100.00
17260;BME280;8746;49.230;9.220;2023-02-23T03:06:33;99581.09;;;6.57;100.00
17260;BME280;8746;49.230;9.220;2023-02-23T03:18:01;99578.91;;;6.72;100.00
17260;BME280;8746;49.230;9.220;2023-02-23T03:20:53;99581.34;;;6.78;100.00
17260;BME280;8746;49.230;9.220;2023-02-23T03:27:00;99583.69;;;6.57;100.00
17260;BME280;8746;49.230;9.220;2023-02-23T03:32:40;99589.53;;;6.67;100.00
17260;BME280;8746;49.230;9.220;2023-02-23T03:41:13;99583.69;;;6.57;100.00
17260;BME280;8746;49.230;9.220;2023-02-23T03:44:04;99582.84;;;6.57;100.00
17260;BME280;8746;49.230;9.220;2023-02-23T03:46:50;99591.44;;;6.62;100.00
17260;BME280;8746;49.230;9.220;2023-02-23T03:49:37;99587.31;;;6.53;100.00
17260;BME280;8746;49.230;9.220;2023-02-23T03:52:26;99586.50;;;6.51;100.00
17260;BME280;8746;49.230;9.220;2023-02-23T03:55:19;99595.13;;;6.55;100.00
17260;BME280;8746;49.230;9.220;2023-02-23T03:58:08;99581.97;;;6.56;100.00
17260;BME280;8746;49.230;9.220;2023-02-23T04:00:57;99591.50;;;6.59;100.00
17260;BME280;8746;49.230;9.220;2023-02-23T04:03:45;99588.75;;;6.64;100.00
17260;BME280;8746;49.230;9.220;2023-02-23T04:06:35;99590.38;;;6.68;100.00
17260;BME280;8746;49.230;9.220;2023-02-23T04:09:19;99585.25;;;6.65;100.00
17260;BME280;8746;49.230;9.220;2023-02-23T04:15:22;99579.03;;;6.67;100.00
17260;BME280;8746;49.230;9.220;2023-02-23T04:17:48;99589.44;;;6.70;100.00
17260;BME280;8746;49.230;9.220;2023-02-23T04:20:14;99587.69;;;6.71;100.00
17260;BME280;8746;49.230;9.220;2023-02-23T04:22:39;99590.28;;;6.71;100.00
17260;BME280;8746;49.230;9.220;2023-02-23T04:25:05;99586.78;;;6.72;100.00
17260;BME280;8746;49.230;9.220;2023-02-23T04:27:33;99584.09;;;6.73;100.00
17260;BME280;8746;49.230;9.220;2023-02-23T04:29:58;99591.31;;;6.67;100.00
17260;BME280;8746;49.230;9.220;2023-02-23T04:32:24;99589.75;;;6.60;100.00
17260;BME280;8746;49.230;9.220;2023-02-23T04:34:49;99590.44;;;6.66;100.00
17260;BME280;8746;49.230;9.220;2023-02-23T04:37:15;99593.00;;;6.68;100.00
17260;BME280;8746;49.230;9.220;2023-02-23T04:39:40;99600.06;;;6.66;100.00
17260;BME280;8746;49.230;9.220;2023-02-23T04:42:12;99591.31;;;6.67;100.00
17260;BME280;8746;49.230;9.220;2023-02-23T04:44:38;99594.72;;;6.69;100.00
17260;BME280;8746;49.230;9.220;2023-02-23T04:47:03;99594.84;;;6.64;100.00
17260;BME280;8746;49.230;9.220;2023-02-23T04:49:28;99591.25;;;6.68;100.00
17260;BME280;8746;49.230;9.220;2023-02-23T04:51:54;99596.44;;;6.70;100.00
17260;BME280;8746;49.230;9.220;2023-02-23T04:54:19;99596.34;;;6.73;100.00
17260;BME280;8746;49.230;9.220;2023-02-23T04:56:44;99597.34;;;6.69;100.00
17260;BME280;8746;49.230;9.220;2023-02-23T04:59:10;99597.34;;;6.69;100.00
17260;BME280;8746;49.230;9.220;2023-02-23T05:01:35;99598.97;;;6.73;100.00
17260;BME280;8746;49.230;9.220;2023-02-23T05:04:01;99583.38;;;6.68;100.00
17260;BME280;8746;49.230;9.220;2023-02-23T05:06:26;99589.59;;;6.66;100.00
17260;BME280;8746;49.230;9.220;2023-02-23T05:08:52;99595.63;;;6.68;100.00
17260;BME280;8746;49.230;9.220;2023-02-23T05:11:17;99589.47;;;6.69;100.00
17260;BME280;8746;49.230;9.220;2023-02-23T05:13:42;99586.84;;;6.69;100.00
17260;BME280;8746;49.230;9.220;2023-02-23T05:16:08;99596.38;;;6.71;100.00
17260;BME280;8746;49.230;9.220;2023-02-23T05:18:34;99585.81;;;6.74;100.00
17260;BME280;8746;49.230;9.220;2023-02-23T05:21:06;99594.59;;;6.73;100.00
17260;BME280;8746;49.230;9.220;2023-02-23T05:23:33;99594.63;;;6.72;100.00
17260;BME280;8746;49.230;9.220;2023-02-23T05:26:05;99591.91;;;6.75;100.00
17260;BME280;8746;49.230;9.220;2023-02-23T05:28:32;99590.03;;;6.80;100.00
17260;BME280;8746;49.230;9.220;2023-02-23T05:30:59;99588.25;;;6.81;100.00
17260;BME280;8746;49.230;9.220;2023-02-23T05:33:24;99583.91;;;6.80;100.00
17260;BME280;8746;49.230;9.220;2023-02-23T05:35:49;99584.94;;;6.74;100.00
17260;BME280;8746;49.230;9.220;2023-02-23T05:38:15;99591.44;;;6.90;100.00
17260;BME280;8746;49.230;9.220;2023-02-23T05:40:40;99583.91;;;6.80;100.00
17260;BME280;8746;49.230;9.220;2023-02-23T05:43:06;99594.41;;;6.80;100.00
17260;BME280;8746;49.230;9.220;2023-02-23T05:45:31;99589.44;;;6.70;100.00
17260;BME280;8746;49.230;9.220;2023-02-23T05:47:57;99586.78;;;6.72;100.00
17260;BME280;8746;49.230;9.220;2023-02-23T05:50:23;99595.47;;;6.72;100.00
17260;BME280;8746;49.230;9.220;2023-02-23T05:52:48;99597.44;;;6.66;100.00
17260;BME280;8746;49.230;9.220;2023-02-23T05:55:13;99593.94;;;6.67;100.00
17260;BME280;8746;49.230;9.220;2023-02-23T05:57:39;99596.38;;;6.71;100.00
17260;BME280;8746;49.230;9.220;2023-02-23T06:00:10;99592.81;;;6.74;100.00
17260;BME280;8746;49.230;9.220;2023-02-23T06:02:36;99594.59;;;6.73;100.00
17260;BME280;8746;49.230;9.220;2023-02-23T06:05:01;99597.25;;;6.72;100.00
17260;BME280;8746;49.230;9.220;2023-02-23T06:07:26;99607.38;;;6.84;100.00
17260;BME280;8746;49.230;9.220;2023-02-23T06:09:52;99595.44;;;6.74;100.00
17260;BME280;8746;49.230;9.220;2023-02-23T06:12:17;99597.06;;;6.78;100.00
17260;BME280;8746;49.230;9.220;2023-02-23T06:14:43;99603.41;;;6.71;100.00
17260;BME280;8746;49.230;9.220;2023-02-23T06:17:08;99605.59;;;6.85;100.00
17260;BME280;8746;49.230;9.220;2023-02-23T06:19:33;99603.84;;;6.85;100.00
17260;BME280;8746;49.230;9.220;2023-02-23T06:21:59;99603.97;;;6.81;100.00
17260;BME280;8746;49.230;9.220;2023-02-23T06:24:24;99606.69;;;6.78;100.00
17260;BME280;8746;49.230;9.220;2023-02-23T06:26:50;99609.38;;;6.76;100.00
17260;BME280;8746;49.230;9.220;2023-02-23T06:29:15;99611.16;;;6.74;100.00
17260;BME280;8746;49.230;9.220;2023-02-23T06:31:41;99613.78;;;6.74;100.00
17260;BME280;8746;49.230;9.220;2023-02-23T06:34:06;99607.63;;;6.75;100.00
17260;BME280;8746;49.230;9.220;2023-02-23T06:36:31;99617.28;;;6.74;100.00
17260;BME280;8746;49.230;9.220;2023-02-23T06:38:57;99623.09;;;6.84;100.00
17260;BME280;8746;49.230;9.220;2023-02-23T06:41:24;99617.03;;;6.82;100.00
17260;BME280;8746;49.230;9.220;2023-02-23T06:43:49;99617.91;;;6.83;100.00
17260;BME280;8746;49.230;9.220;2023-02-23T06:46:16;99624.00;;;6.83;100.00
17260;BME280;8746;49.230;9.220;2023-02-23T06:48:41;99622.22;;;6.84;100.00
17260;BME280;8746;49.230;9.220;2023-02-23T06:51:06;99627.47;;;6.84;100.00
17260;BME280;8746;49.230;9.220;2023-02-23T06:53:32;99632.56;;;6.90;100.00
17260;BME280;8746;49.230;9.220;2023-02-23T06:55:58;99622.91;;;6.90;100.00
17260;BME280;8746;49.230;9.220;2023-02-23T06:58:24;99633.34;;;6.94;100.00
17260;BME280;8746;49.230;9.220;2023-02-23T07:00:50;99632.41;;;6.95;100.00
17260;BME280;8746;49.230;9.220;2023-02-23T07:03:15;99638.47;;;6.97;100.00
17260;BME280;8746;49.230;9.220;2023-02-23T07:05:40;99641.91;;;6.99;100.00
17260;BME280;8746;49.230;9.220;2023-02-23T07:08:06;99632.25;;;6.99;100.00
17260;BME280;8746;49.230;9.220;2023-02-23T07:10:32;99636.56;;;7.02;100.00
17260;BME280;8746;49.230;9.220;2023-02-23T07:12:57;99640.06;;;7.01;100.00
17260;BME280;8746;49.230;9.220;2023-02-23T07:15:23;99648.78;;;7.03;100.00
17260;BME280;8746;49.230;9.220;2023-02-23T07:17:49;99650.34;;;7.09;100.00
17260;BME280;8746;49.230;9.220;2023-02-23T07:20:17;99651.19;;;7.09;100.00
17260;BME280;8746;49.230;9.220;2023-02-23T07:22:43;99650.22;;;7.13;100.00
17260;BME280;8746;49.230;9.220;2023-02-23T07:25:09;99656.25;;;7.15;100.00
17260;BME280;8746;49.230;9.220;2023-02-23T07:27:35;99659.66;;;7.19;100.00
17260;BME280;8746;49.230;9.220;2023-02-23T07:30:00;99653.16;;;7.31;100.00
17260;BME280;8746;49.230;9.220;2023-02-23T07:32:29;99648.13;;;7.25;100.00
17260;BME280;8746;49.230;9.220;2023-02-23T07:34:54;99660.34;;;7.26;100.00
17260;BME280;8746;49.230;9.220;2023-02-23T07:37:20;99646.31;;;7.27;100.00
17260;BME280;8746;49.230;9.220;2023-02-23T07:39:46;99647.28;;;7.22;100.00
17260;BME280;8746;49.230;9.220;2023-02-23T07:42:11;99660.56;;;7.18;100.00
17260;BME280;8746;49.230;9.220;2023-02-23T07:44:38;99660.47;;;7.21;100.00
17260;BME280;8746;49.230;9.220;2023-02-23T07:47:03;99654.25;;;7.24;100.00
17260;BME280;8746;49.230;9.220;2023-02-23T07:49:29;99657.72;;;7.26;100.00
17260;BME280;8746;49.230;9.220;2023-02-23T07:51:55;99651.44;;;7.30;100.00
17260;BME280;8746;49.230;9.220;2023-02-23T07:54:21;99656.56;;;7.34;100.00
17260;BME280;8746;49.230;9.220;2023-02-23T07:56:46;99654.50;;;7.44;100.00
17260;BME280;8746;49.230;9.220;2023-02-23T07:59:12;99650.09;;;7.45;100.00
17260;BME280;8746;49.230;9.220;2023-02-23T08:01:38;99655.41;;;7.43;100.00
17260;BME280;8746;49.230;9.220;2023-02-23T08:04:03;99650.63;;;7.56;100.00
17260;BME280;8746;49.230;9.220;2023-02-23T08:06:29;99649.41;;;7.66;100.00
17260;BME280;8746;49.230;9.220;2023-02-23T08:08:57;99646.22;;;7.83;100.00
17260;BME280;8746;49.230;9.220;2023-02-23T08:11:23;99642.78;;;7.81;100.00
17260;BME280;8746;49.230;9.220;2023-02-23T08:13:48;99658.22;;;7.91;100.00
17260;BME280;8746;49.230;9.220;2023-02-23T08:16:14;99655.19;;;8.03;100.00
17260;BME280;8746;49.230;9.220;2023-02-23T08:18:40;99654.28;;;8.04;100.00
17260;BME280;8746;49.230;9.220;2023-02-23T08:21:05;99652.13;;;8.15;100.00
17260;BME280;8746;49.230;9.220;2023-02-23T08:23:32;99659.50;;;8.29;100.00
17260;BME280;8746;49.230;9.220;2023-02-23T08:25:58;99657.59;;;8.34;100.00
17260;BME280;8746;49.230;9.220;2023-02-23T08:28:25;99664.41;;;8.40;100.00
17260;BME280;8746;49.230;9.220;2023-02-23T08:30:51;99662.97;;;8.57;100.00
17260;BME280;8746;49.230;9.220;2023-02-23T08:33:17;99663.78;;;8.59;100.00
17260;BME280;8746;49.230;9.220;2023-02-23T08:35:42;99665.25;;;8.66;100.00
17260;BME280;8746;49.230;9.220;2023-02-23T08:38:08;99661.25;;;8.79;100.00
17260;BME280;8746;49.230;9.220;2023-02-23T08:40:33;99671.50;;;8.87;100.00
17260;BME280;8746;49.230;9.220;2023-02-23T08:42:59;99675.72;;;8.91;100.00
17260;BME280;8746;49.230;9.220;2023-02-23T08:45:24;99665.03;;;8.96;100.00
17260;BME280;8746;49.230;9.220;2023-02-23T08:47:49;99665.53;;;9.06;100.00
17260;BME280;8746;49.230;9.220;2023-02-23T08:50:15;99665.81;;;9.22;100.00
17260;BME280;8746;49.230;9.220;2023-02-23T08:52:41;99675.97;;;9.31;100.00
17260;BME280;8746;49.230;9.220;2023-02-23T08:55:07;99668.63;;;9.39;100.00
17260;BME280;8746;49.230;9.220;2023-02-23T08:57:33;99665.94;;;9.41;100.00
17260;BME280;8746;49.230;9.220;2023-02-23T08:59:59;99673.28;;;9.55;100.00
17260;BME280;8746;49.230;9.220;2023-02-23T09:02:24;99671.13;;;9.42;100.00
17260;BME280;8746;49.230;9.220;2023-02-23T09:04:51;99671.63;;;9.52;100.00
17260;BME280;8746;49.230;9.220;2023-02-23T09:07:19;99675.06;;;9.54;100.00
17260;BME280;8746;49.230;9.220;2023-02-23T09:09:52;99665.38;;;9.33;100.00
17260;BME280;8746;49.230;9.220;2023-02-23T09:12:18;99677.88;;;9.27;100.00
17260;BME280;8746;49.230;9.220;2023-02-23T09:14:43;99675.53;;;9.20;100.00
17260;BME280;8746;49.230;9.220;2023-02-23T09:17:08;99674.75;;;9.18;100.00
17260;BME280;8746;49.230;9.220;2023-02-23T09:19:34;99676.66;;;9.12;100.00
17260;BME280;8746;49.230;9.220;2023-02-23T09:21:59;99679.31;;;9.12;100.00
17260;BME280;8746;49.230;9.220;2023-02-23T09:24:25;99682.25;;;9.27;100.00
17260;BME280;8746;49.230;9.220;2023-02-23T09:26:50;99677.88;;;9.50;100.00
17260;BME280;8746;49.230;9.220;2023-02-23T09:29:17;99667.63;;;9.42;100.00
17260;BME280;8746;49.230;9.220;2023-02-23T09:31:42;99675.34;;;9.46;100.00
17260;BME280;8746;49.230;9.220;2023-02-23T09:34:08;99679.28;;;9.58;100.00
17260;BME280;8746;49.230;9.220;2023-02-23T09:36:34;99671.69;;;9.73;100.00
17260;BME280;8746;49.230;9.220;2023-02-23T09:39:00;99680.25;;;9.78;100.00
17260;BME280;8746;49.230;9.220;2023-02-23T09:44:11;99677.22;;;10.08;100.00
17260;BME280;8746;49.230;9.220;2023-02-23T09:49:36;99683.72;;;10.01;100.00
17260;BME280;8746;49.230;9.220;2023-02-23T09:52:03;99683.66;;;10.23;100.00
17260;BME280;8746;49.230;9.220;2023-02-23T09:54:34;99686.03;;;10.29;100.00
17260;BME280;8746;49.230;9.220;2023-02-23T09:57:02;99689.31;;;10.34;100.00
17260;BME280;8746;49.230;9.220;2023-02-23T09:59:29;99681.50;;;10.53;100.00
17260;BME280;8746;49.230;9.220;2023-02-23T10:04:42;99685.84;;;10.73;100.00
17260;BME280;8746;49.230;9.220;2023-02-23T10:15:19;99682.31;;;10.74;100.00
17260;BME280;8746;49.230;9.220;2023-02-23T10:23:31;99676.97;;;10.95;100.00
17260;BME280;8746;49.230;9.220;2023-02-23T10:25:59;99676.88;;;10.78;100.00
17260;BME280;8746;49.230;9.220;2023-02-23T10:28:32;99677.41;;;10.65;100.00
17260;BME280;8746;49.230;9.220;2023-02-23T10:30:58;99680.78;;;10.69;100.00
17260;BME280;8746;49.230;9.220;2023-02-23T10:33:37;99690.00;;;10.79;100.00
17260;BME280;8746;49.230;9.220;2023-02-23T10:36:18;99687.31;;;11.00;100.00
17260;BME280;8746;49.230;9.220;2023-02-23T10:38:44;99682.94;;;11.18;100.00
17260;BME280;8746;49.230;9.220;2023-02-23T10:41:10;99684.78;;;11.35;99.54
17260;BME280;8746;49.230;9.220;2023-02-23T10:43:36;99682.75;;;11.59;98.88
17260;BME280;8746;49.230;9.220;2023-02-23T10:46:03;99688.78;;;11.44;97.36
17260;BME280;8746;49.230;9.220;2023-02-23T10:48:48;99688.16;;;11.38;99.14
17260;BME280;8746;49.230;9.220;2023-02-23T10:51:22;99685.09;;;11.65;96.24
17260;BME280;8746;49.230;9.220;2023-02-23T10:53:49;99677.56;;;12.63;94.73
17260;BME280;8746;49.230;9.220;2023-02-23T10:56:16;99673.03;;;13.30;89.47
17260;BME280;8746;49.230;9.220;2023-02-23T10:58:56;99670.28;;;14.25;84.34
17260;BME280;8746;49.230;9.220;2023-02-23T11:01:36;99662.97;;;14.88;80.48
17260;BME280;8746;49.230;9.220;2023-02-23T11:04:19;99661.44;;;14.98;76.10
17260;BME280;8746;49.230;9.220;2023-02-23T11:06:47;99658.63;;;15.56;76.65
17260;BME280;8746;49.230;9.220;2023-02-23T11:09:24;99654.09;;;15.98;74.88
17260;BME280;8746;49.230;9.220;2023-02-23T11:11:59;99652.03;;;15.89;72.20
17260;BME280;8746;49.230;9.220;2023-02-23T11:14:28;99652.53;;;15.81;71.99
17260;BME280;8746;49.230;9.220;2023-02-23T11:16:58;99644.53;;;15.41;72.39
17260;BME280;8746;49.230;9.220;2023-02-23T11:19:34;99641.75;;;15.97;70.05
17260;BME280;8746;49.230;9.220;2023-02-23T11:22:02;99651.78;;;16.19;68.52
17260;BME280;8746;49.230;9.220;2023-02-23T11:24:33;99641.16;;;15.39;72.72
17260;BME280;8746;49.230;9.220;2023-02-23T11:27:02;99641.59;;;15.04;73.31
17260;BME280;8746;49.230;9.220;2023-02-23T11:29:37;99656.16;;;14.10;77.07
17260;BME280;8746;49.230;9.220;2023-02-23T11:32:06;99651.56;;;13.67;80.25
17260;BME280;8746;49.230;9.220;2023-02-23T11:34:34;99651.75;;;13.16;82.11
17260;BME280;8746;49.230;9.220;2023-02-23T11:37:30;99647.56;;;12.96;82.82
17260;BME280;8746;49.230;9.220;2023-02-23T11:40:01;99650.78;;;12.69;84.79
17260;BME280;8746;49.230;9.220;2023-02-23T11:42:29;99646.53;;;12.49;82.78
17260;BME280;8746;49.230;9.220;2023-02-23T11:45:17;99641.41;;;12.46;81.34
17260;BME280;8746;49.230;9.220;2023-02-23T11:47:49;99643.28;;;12.44;82.11
17260;BME280;8746;49.230;9.220;2023-02-23T11:50:33;99631.81;;;12.61;80.56
17260;BME280;8746;49.230;9.220;2023-02-23T11:53:05;99638.84;;;12.78;82.06
17260;BME280;8746;49.230;9.220;2023-02-23T11:55:37;99632.69;;;12.77;79.92
17260;BME280;8746;49.230;9.220;2023-02-23T11:58:18;99629.69;;;12.68;83.81
17260;BME280;8746;49.230;9.220;2023-02-23T12:01:01;99628.53;;;12.40;87.67
17260;BME280;8746;49.230;9.220;2023-02-23T12:03:29;99633.53;;;12.28;88.01
17260;BME280;8746;49.230;9.220;2023-02-23T12:05:57;99628.72;;;12.01;89.26
17260;BME280;8746;49.230;9.220;2023-02-23T12:08:49;99626.59;;;11.91;89.77
17260;BME280;8746;49.230;9.220;2023-02-23T12:11:24;99625.91;;;11.87;90.40
17260;BME280;8746;49.230;9.220;2023-02-23T12:13:55;99620.94;;;11.98;88.78
17260;BME280;8746;49.230;9.220;2023-02-23T12:16:26;99623.28;;;12.05;88.10
17260;BME280;8746;49.230;9.220;2023-02-23T12:19:26;99617.72;;;12.27;89.21
17260;BME280;8746;49.230;9.220;2023-02-23T12:22:06;99614.66;;;12.18;86.72
17260;BME280;8746;49.230;9.220;2023-02-23T12:24:52;99622.31;;;12.23;86.16
17260;BME280;8746;49.230;9.220;2023-02-23T12:27:42;99620.41;;;12.09;84.71
17260;BME280;8746;49.230;9.220;2023-02-23T12:35:22;99618.88;;;12.39;85.04
17260;BME280;8746;49.230;9.220;2023-02-23T12:37:55;99612.81;;;12.53;82.80
17260;BME280;8746;49.230;9.220;2023-02-23T12:40:27;99609.78;;;12.60;81.27
17260;BME280;8746;49.230;9.220;2023-02-23T12:43:00;99601.97;;;12.75;81.97
17260;BME280;8746;49.230;9.220;2023-02-23T12:45:41;99601.19;;;12.73;82.55
17260;BME280;8746;49.230;9.220;2023-02-23T12:50:50;99592.81;;;12.96;80.18
17260;BME280;8746;49.230;9.220;2023-02-23T12:53:24;99599.03;;;12.79;80.47
17260;BME280;8746;49.230;9.220;2023-02-23T12:59:02;99588.09;;;12.70;78.96
17260;BME280;8746;49.230;9.220;2023-02-23T13:07:00;99588.28;;;12.66;80.02
17260;BME280;8746;49.230;9.220;2023-02-23T13:20:43;99567.13;;;12.66;76.59
17260;BME280;8746;49.230;9.220;2023-02-23T13:23:22;99573.50;;;12.62;77.92
17260;BME280;8746;49.230;9.220;2023-02-23T13:28:52;99576.81;;;12.66;76.24
17260;BME280;8746;49.230;9.220;2023-02-23T13:31:25;99576.16;;;12.78;76.68
17260;BME280;8746;49.230;9.220;2023-02-23T13:33:53;99578.97;;;12.75;74.78
17260;BME280;8746;49.230;9.220;2023-02-23T13:36:20;99572.06;;;12.89;77.05
17260;BME280;8746;49.230;9.220;2023-02-23T13:39:03;99575.56;;;12.89;74.84
17260;BME280;8746;49.230;9.220;2023-02-23T13:41:38;99580.00;;;13.05;74.58
17260;BME280;8746;49.230;9.220;2023-02-23T13:44:33;99572.56;;;13.27;73.20
17260;BME280;8746;49.230;9.220;2023-02-23T13:47:26;99570.00;;;13.10;73.72
17260;BME280;8746;49.230;9.220;2023-02-23T13:50:16;99568.72;;;13.01;72.92
17260;BME280;8746;49.230;9.220;2023-02-23T13:52:45;99569.16;;;12.93;73.15
17260;BME280;8746;49.230;9.220;2023-02-23T14:00:21;99563.50;;;13.15;74.21
17260;BME280;8746;49.230;9.220;2023-02-23T14:02:47;99560.41;;;13.23;74.52
17260;BME280;8746;49.230;9.220;2023-02-23T14:05:19;99562.53;;;13.33;73.93
17260;BME280;8746;49.230;9.220;2023-02-23T14:07:50;99562.31;;;13.21;72.87
17260;BME280;8746;49.230;9.220;2023-02-23T14:10:20;99562.63;;;13.15;73.42
17260;BME280;8746;49.230;9.220;2023-02-23T14:16:28;99564.22;;;13.03;73.66
17260;BME280;8746;49.230;9.220;2023-02-23T14:18:30;99557.34;;;12.99;74.15
17260;BME280;8746;49.230;9.220;2023-02-23T14:21:15;99564.38;;;13.00;74.54
17260;BME280;8746;49.230;9.220;2023-02-23T14:26:36;99561.28;;;12.92;77.23
17260;BME280;8746;49.230;9.220;2023-02-23T14:32:01;99557.22;;;12.86;78.90
17260;BME280;8746;49.230;9.220;2023-02-23T14:34:46;99555.50;;;12.85;77.10
17260;BME280;8746;49.230;9.220;2023-02-23T14:37:34;99552.38;;;13.09;75.08
17260;BME280;8746;49.230;9.220;2023-02-23T14:42:30;99559.06;;;13.16;75.84
17260;BME280;8746;49.230;9.220;2023-02-23T14:45:03;99549.22;;;13.18;74.69
17260;BME280;8746;49.230;9.220;2023-02-23T14:47:29;99554.84;;;13.28;73.81
17260;BME280;8746;49.230;9.220;2023-02-23T14:50:09;99557.00;;;13.05;73.80
17260;BME280;8746;49.230;9.220;2023-02-23T14:52:40;99552.59;;;13.06;73.50
17260;BME280;8746;49.230;9.220;2023-02-23T14:57:42;99551.72;;;13.05;74.51
17260;BME280;8746;49.230;9.220;2023-02-23T15:02:52;99549.69;;;13.10;73.22
17260;BME280;8746;49.230;9.220;2023-02-23T15:05:19;99549.34;;;13.01;73.91
17260;BME280;8746;49.230;9.220;2023-02-23T15:07:46;99556.88;;;12.92;75.31
17260;BME280;8746;49.230;9.220;2023-02-23T15:10:23;99558.59;;;12.77;74.60
17260;BME280;8746;49.230;9.220;2023-02-23T15:12:50;99555.75;;;12.64;75.36
17260;BME280;8746;49.230;9.220;2023-02-23T15:15:18;99555.94;;;12.61;75.74
17260;BME280;8746;49.230;9.220;2023-02-23T15:17:47;99558.41;;;12.64;76.11
17260;BME280;8746;49.230;9.220;2023-02-23T15:20:15;99558.03;;;12.55;76.05
17260;BME280;8746;49.230;9.220;2023-02-23T15:22:45;99564.50;;;12.49;75.95
17260;BME280;8746;49.230;9.220;2023-02-23T15:25:18;99561.13;;;12.47;75.61
17260;BME280;8746;49.230;9.220;2023-02-23T15:27:45;99559.66;;;12.41;76.48
17260;BME280;8746;49.230;9.220;2023-02-23T15:33:00;99556.75;;;12.46;76.97